Time,TemperatureF,DewpointF,PressureIn,WindDirection,WindDirectionDegrees,WindSpeedMPH,WindSpeedGustMPH,Humidity,HourlyPrecipIn,Conditions,Clouds,dailyrainin,SolarRadiationWatts/m^2,SoftwareType,DateUTC
2013-08-07 00:02:00,88.0,60.0,-100.00,SE,142,6.0,9.0,39,0.00,,,0.00,0.000000,,2013-08-07 05:02:00,
2013-08-07 00:32:00,88.0,63.0,-100.00,SSE,152,8.0,14.0,43,0.00,,,0.00,0.000000,,2013-08-07 05:32:00,
2013-08-07 00:43:00,88.0,63.0,-100.00,SSE,152,8.0,14.0,43,0.00,,,0.00,0.000000,,2013-08-07 05:43:00,
2013-08-07 00:52:00,88.0,63.0,-100.00,SSE,152,8.0,14.0,43,0.00,,,0.00,0.000000,,2013-08-07 05:52:00,
2013-08-07 01:02:00,88.0,63.0,-100.00,SSE,152,8.0,14.0,43,0.00,,,0.00,0.000000,,2013-08-07 06:02:00,
2013-08-07 01:32:00,88.0,65.0,-100.00,SSE,165,12.0,19.0,46,0.00,,,0.00,0.000000,,2013-08-07 06:32:00,
2013-08-07 01:43:00,88.0,65.0,-100.00,SSE,165,12.0,19.0,46,0.00,,,0.00,0.000000,,2013-08-07 06:43:00,
2013-08-07 01:52:00,88.0,65.0,-100.00,SSE,165,12.0,19.0,46,0.00,,,0.00,0.000000,,2013-08-07 06:52:00,
2013-08-07 02:01:00,88.0,65.0,-100.00,SSE,165,12.0,19.0,46,0.00,,,0.00,0.000000,,2013-08-07 07:01:00,
2013-08-07 02:33:00,86.0,65.0,-100.00,South,171,10.0,20.0,50,0.00,,,0.00,0.000000,,2013-08-07 07:33:00,
2013-08-07 02:43:00,86.0,65.0,-100.00,South,171,10.0,20.0,50,0.00,,,0.00,0.000000,,2013-08-07 07:43:00,
2013-08-07 02:52:00,86.0,65.0,-100.00,South,171,10.0,20.0,50,0.00,,,0.00,0.000000,,2013-08-07 07:52:00,
2013-08-07 03:01:00,86.0,65.0,-100.00,South,171,10.0,20.0,50,0.00,,,0.00,0.000000,,2013-08-07 08:01:00,
2013-08-07 03:32:00,84.0,66.0,-100.00,South,175,10.0,19.0,55,0.00,,,0.00,0.000000,,2013-08-07 08:32:00,
2013-08-07 03:44:00,84.0,66.0,-100.00,South,175,10.0,19.0,55,0.00,,,0.00,0.000000,,2013-08-07 08:44:00,
2013-08-07 03:52:00,84.0,66.0,-100.00,South,175,10.0,19.0,55,0.00,,,0.00,0.000000,,2013-08-07 08:52:00,
2013-08-07 04:01:00,84.0,66.0,-100.00,South,175,10.0,19.0,55,0.00,,,0.00,0.000000,,2013-08-07 09:01:00,
2013-08-07 04:32:00,83.0,68.0,-100.00,SSE,168,12.0,21.0,60,0.00,,,0.00,0.000000,,2013-08-07 09:32:00,
2013-08-07 04:43:00,83.0,68.0,-100.00,SSE,168,12.0,21.0,60,0.00,,,0.00,0.000000,,2013-08-07 09:43:00,
2013-08-07 04:54:00,83.0,68.0,-100.00,SSE,168,12.0,21.0,60,0.00,,,0.00,0.000000,,2013-08-07 09:54:00,
2013-08-07 05:01:00,83.0,68.0,-100.00,SSE,168,12.0,21.0,60,0.00,,,0.00,0.000000,,2013-08-07 10:01:00,
2013-08-07 05:32:00,82.0,68.0,-100.00,South,171,10.0,19.0,63,0.00,,,0.00,0.000000,,2013-08-07 10:32:00,
2013-08-07 05:43:00,82.0,68.0,-100.00,South,171,10.0,19.0,63,0.00,,,0.00,0.000000,,2013-08-07 10:43:00,
2013-08-07 05:52:00,82.0,68.0,-100.00,South,171,10.0,19.0,63,0.00,,,0.00,0.000000,,2013-08-07 10:52:00,
2013-08-07 06:01:00,82.0,68.0,-100.00,South,171,10.0,19.0,63,0.00,,,0.00,0.000000,,2013-08-07 11:01:00,
2013-08-07 06:32:00,81.0,68.0,-100.00,South,182,8.0,17.0,65,0.00,,,0.00,0.000000,,2013-08-07 11:32:00,
2013-08-07 06:43:00,81.0,68.0,-100.00,South,182,8.0,17.0,65,0.00,,,0.00,0.000000,,2013-08-07 11:43:00,
2013-08-07 06:53:00,81.0,68.0,-100.00,South,182,8.0,17.0,65,0.00,,,0.00,0.000000,,2013-08-07 11:53:00,
2013-08-07 07:02:00,81.0,68.0,-100.00,South,182,8.0,17.0,65,0.00,,,0.00,0.000000,,2013-08-07 12:02:00,
2013-08-07 07:33:00,80.0,68.0,-100.00,South,188,7.0,16.0,68,0.00,,,0.00,4.000000,,2013-08-07 12:33:00,
2013-08-07 07:43:00,80.0,68.0,-100.00,South,188,7.0,16.0,68,0.00,,,0.00,4.000000,,2013-08-07 12:43:00,
2013-08-07 07:52:00,80.0,68.0,-100.00,South,188,7.0,16.0,68,0.00,,,0.00,4.000000,,2013-08-07 12:52:00,
2013-08-07 08:02:00,80.0,68.0,-100.00,South,188,7.0,16.0,68,0.00,,,0.00,4.000000,,2013-08-07 13:02:00,
2013-08-07 08:32:00,81.0,70.0,-100.00,South,176,8.0,15.0,70,0.00,,,0.00,81.000000,,2013-08-07 13:32:00,
2013-08-07 08:44:00,81.0,70.0,-100.00,South,176,8.0,15.0,70,0.00,,,0.00,81.000000,,2013-08-07 13:44:00,
2013-08-07 08:53:00,81.0,70.0,-100.00,South,176,8.0,15.0,70,0.00,,,0.00,81.000000,,2013-08-07 13:53:00,
2013-08-07 09:02:00,81.0,70.0,-100.00,South,176,8.0,15.0,70,0.00,,,0.00,81.000000,,2013-08-07 14:02:00,
2013-08-07 09:33:00,84.0,71.0,-100.00,SSW,203,9.0,19.0,66,0.00,,,0.00,269.000000,,2013-08-07 14:33:00,
2013-08-07 09:43:00,84.0,71.0,-100.00,SSW,203,9.0,19.0,66,0.00,,,0.00,269.000000,,2013-08-07 14:43:00,
2013-08-07 09:52:00,84.0,71.0,-100.00,SSW,203,9.0,19.0,66,0.00,,,0.00,269.000000,,2013-08-07 14:52:00,
2013-08-07 10:02:00,84.0,71.0,-100.00,SSW,203,9.0,19.0,66,0.00,,,0.00,269.000000,,2013-08-07 15:02:00,
2013-08-07 10:33:00,88.0,71.0,-100.00,South,189,7.0,15.0,58,0.00,,,0.00,475.000000,,2013-08-07 15:33:00,
2013-08-07 10:43:00,88.0,71.0,-100.00,South,189,7.0,15.0,58,0.00,,,0.00,475.000000,,2013-08-07 15:43:00,
2013-08-07 10:53:00,88.0,71.0,-100.00,South,189,7.0,15.0,58,0.00,,,0.00,475.000000,,2013-08-07 15:53:00,
2013-08-07 11:02:00,88.0,71.0,-100.00,South,189,7.0,15.0,58,0.00,,,0.00,475.000000,,2013-08-07 16:02:00,
2013-08-07 11:33:00,92.0,70.0,-100.00,South,186,8.0,15.0,49,0.00,,,0.00,654.000000,,2013-08-07 16:33:00,
2013-08-07 11:43:00,92.0,70.0,-100.00,South,186,8.0,15.0,49,0.00,,,0.00,654.000000,,2013-08-07 16:43:00,
2013-08-07 11:53:00,92.0,70.0,-100.00,South,186,8.0,15.0,49,0.00,,,0.00,654.000000,,2013-08-07 16:53:00,
2013-08-07 12:01:00,92.0,70.0,-100.00,South,186,8.0,15.0,49,0.00,,,0.00,654.000000,,2013-08-07 17:01:00,
2013-08-07 12:33:00,97.0,69.0,-100.00,SSW,192,8.0,14.0,40,0.00,,,0.00,866.000000,,2013-08-07 17:33:00,
2013-08-07 12:43:00,97.0,69.0,-100.00,SSW,192,8.0,14.0,40,0.00,,,0.00,866.000000,,2013-08-07 17:43:00,
2013-08-07 12:52:00,97.0,69.0,-100.00,SSW,192,8.0,14.0,40,0.00,,,0.00,866.000000,,2013-08-07 17:52:00,
2013-08-07 13:02:00,97.0,69.0,-100.00,SSW,192,8.0,14.0,40,0.00,,,0.00,866.000000,,2013-08-07 18:02:00,
2013-08-07 13:32:00,99.0,66.0,-100.00,SSW,195,9.0,16.0,35,0.00,,,0.00,942.000000,,2013-08-07 18:32:00,
2013-08-07 13:43:00,99.0,66.0,-100.00,SSW,195,9.0,16.0,35,0.00,,,0.00,942.000000,,2013-08-07 18:43:00,
2013-08-07 13:52:00,99.0,66.0,-100.00,SSW,195,9.0,16.0,35,0.00,,,0.00,942.000000,,2013-08-07 18:52:00,
2013-08-07 14:01:00,99.0,66.0,-100.00,SSW,195,9.0,16.0,35,0.00,,,0.00,942.000000,,2013-08-07 19:01:00,
2013-08-07 14:32:00,102.0,65.0,-100.00,SSW,196,10.0,19.0,30,0.00,,,-99.99,1007.000000,,2013-08-07 19:32:00,
2013-08-07 14:44:00,102.0,65.0,-100.00,SSW,196,10.0,19.0,30,0.00,,,-99.99,1007.000000,,2013-08-07 19:44:00,
2013-08-07 14:52:00,102.0,65.0,-100.00,SSW,196,10.0,19.0,30,0.00,,,-99.99,1007.000000,,2013-08-07 19:52:00,
2013-08-07 15:02:00,102.0,65.0,-100.00,SSW,196,10.0,19.0,30,0.00,,,-99.99,1007.000000,,2013-08-07 20:02:00,
2013-08-07 15:33:00,104.0,65.0,-100.00,South,181,8.0,17.0,29,0.00,,,0.00,824.000000,,2013-08-07 20:33:00,
2013-08-07 15:43:00,104.0,65.0,-100.00,South,181,8.0,17.0,29,0.00,,,0.00,824.000000,,2013-08-07 20:43:00,
2013-08-07 15:52:00,104.0,65.0,-100.00,South,181,8.0,17.0,29,0.00,,,0.00,824.000000,,2013-08-07 20:52:00,
2013-08-07 16:01:00,104.0,65.0,-100.00,South,181,8.0,17.0,29,0.00,,,0.00,824.000000,,2013-08-07 21:01:00,
2013-08-07 16:32:00,105.0,64.0,-100.00,South,171,9.0,17.0,27,0.00,,,0.00,838.000000,,2013-08-07 21:32:00,
2013-08-07 16:43:00,105.0,64.0,-100.00,South,171,9.0,17.0,27,0.00,,,0.00,838.000000,,2013-08-07 21:43:00,
2013-08-07 16:52:00,105.0,64.0,-100.00,South,171,9.0,17.0,27,0.00,,,0.00,838.000000,,2013-08-07 21:52:00,
2013-08-07 17:01:00,105.0,64.0,-100.00,South,171,9.0,17.0,27,0.00,,,0.00,838.000000,,2013-08-07 22:01:00,
2013-08-07 17:32:00,106.0,63.0,-100.00,SSE,150,8.0,20.0,25,0.00,,,0.00,662.000000,,2013-08-07 22:32:00,
2013-08-07 17:43:00,106.0,63.0,-100.00,SSE,150,8.0,20.0,25,0.00,,,0.00,662.000000,,2013-08-07 22:43:00,
2013-08-07 17:52:00,106.0,63.0,-100.00,SSE,150,8.0,20.0,25,0.00,,,0.00,662.000000,,2013-08-07 22:52:00,
2013-08-07 18:01:00,106.0,63.0,-100.00,SSE,150,8.0,20.0,25,0.00,,,0.00,662.000000,,2013-08-07 23:01:00,
2013-08-07 18:32:00,104.0,61.0,-100.00,South,175,8.0,17.0,25,0.00,,,-99.99,483.000000,,2013-08-07 23:32:00,
2013-08-07 18:43:00,104.0,61.0,-100.00,South,175,8.0,17.0,25,0.00,,,-99.99,483.000000,,2013-08-07 23:43:00,
2013-08-07 18:52:00,104.0,61.0,-100.00,South,175,8.0,17.0,25,0.00,,,-99.99,483.000000,,2013-08-07 23:52:00,
2013-08-07 19:01:00,104.0,61.0,-100.00,South,175,8.0,17.0,25,0.00,,,-99.99,483.000000,,2013-08-08 00:01:00,
2013-08-07 19:32:00,101.0,61.0,-100.00,SSE,159,11.0,16.0,27,0.00,,,0.00,291.000000,,2013-08-08 00:32:00,
2013-08-07 19:43:00,101.0,61.0,-100.00,SSE,159,11.0,16.0,27,0.00,,,0.00,291.000000,,2013-08-08 00:43:00,
2013-08-07 19:52:00,101.0,61.0,-100.00,SSE,159,11.0,16.0,27,0.00,,,0.00,291.000000,,2013-08-08 00:52:00,
2013-08-07 20:02:00,101.0,61.0,-100.00,SSE,159,11.0,16.0,27,0.00,,,0.00,291.000000,,2013-08-08 01:02:00,
2013-08-07 20:32:00,97.0,59.0,-100.00,SSE,156,7.0,15.0,29,0.00,,,0.00,84.000000,,2013-08-08 01:32:00,
2013-08-07 20:43:00,97.0,59.0,-100.00,SSE,156,7.0,15.0,29,0.00,,,0.00,84.000000,,2013-08-08 01:43:00,
2013-08-07 20:52:00,97.0,59.0,-100.00,SSE,156,7.0,15.0,29,0.00,,,0.00,84.000000,,2013-08-08 01:52:00,
2013-08-07 21:02:00,97.0,59.0,-100.00,SSE,156,7.0,15.0,29,0.00,,,0.00,84.000000,,2013-08-08 02:02:00,
2013-08-07 21:32:00,93.0,61.0,-100.00,SSE,149,5.0,9.0,35,0.00,,,0.00,2.000000,,2013-08-08 02:32:00,
2013-08-07 21:43:00,93.0,61.0,-100.00,SSE,149,5.0,9.0,35,0.00,,,0.00,2.000000,,2013-08-08 02:43:00,
2013-08-07 21:52:00,93.0,61.0,-100.00,SSE,149,5.0,9.0,35,0.00,,,0.00,2.000000,,2013-08-08 02:52:00,
2013-08-07 22:01:00,93.0,61.0,-100.00,SSE,149,5.0,9.0,35,0.00,,,0.00,2.000000,,2013-08-08 03:01:00,
2013-08-07 22:32:00,92.0,60.0,-100.00,SSE,153,7.0,11.0,35,0.00,,,0.00,0.000000,,2013-08-08 03:32:00,
2013-08-07 22:43:00,92.0,60.0,-100.00,SSE,153,7.0,11.0,35,0.00,,,0.00,0.000000,,2013-08-08 03:43:00,
2013-08-07 22:52:00,92.0,60.0,-100.00,SSE,153,7.0,11.0,35,0.00,,,0.00,0.000000,,2013-08-08 03:52:00,
2013-08-07 23:01:00,92.0,60.0,-100.00,SSE,153,7.0,11.0,35,0.00,,,0.00,0.000000,,2013-08-08 04:01:00,
2013-08-07 23:33:00,90.0,59.0,-100.00,SE,138,5.0,11.0,36,0.00,,,0.00,0.000000,,2013-08-08 04:33:00,
2013-08-07 23:44:00,90.0,59.0,-100.00,SE,138,5.0,11.0,36,0.00,,,0.00,0.000000,,2013-08-08 04:44:00,
2013-08-07 23:53:00,90.0,59.0,-100.00,SE,138,5.0,11.0,36,0.00,,,0.00,0.000000,,2013-08-08 04:53:00,